Portada
METAR-TAF:

METAR-TAF

Aeroports :

Cayman Brac, Illes Caiman

latitud: 19-41-13N, longitud: 079-52-58W, altitud: 2 m

Observació

L'informe es va fer fa 35 minuts, a les 23:00 UTC
Vent 5 kt del Est/Sud-Est
Temperatura 27°C
Humitat 70%
Pressió 1013 hPa
Visibilitat 10 km o més
Núvols disperses a una alçada de 2200 ft

METAR: MWCB 152300Z 11005KT 9999 SCT022 27/21 Q1013

Hora: 18:35 (23:35 UTC)

Pronòstic

L'informe es va fer fa 6 hores i 35 minuts, a les 17:00 UTC
Pronòstic vàlid del 15 a les 18 UTC al 16 a les 18 UTC
Vent 10 kt del Est/Sud-Est
Visibilitat 10 km o més
Escasses núvols a una alçada de 1800 ft

TAF: MWCB 151700Z 1518/1618 12010KT 9999 FEW018

Observacions i pronòstics meteorològics de més de 4000 aeroports (METAR i TAF).

Les estacions disponibles són els punts grocs i vermells al mapa.

Posi el ratolí al punt desitjat per veure el nom de l'estació.

Feu clic per veure les observacions i els pronòstics meteorològics.

Per canviar el mapa: feu clic els botons verds amb una creu de color negre per apropar; al botó verd amb un guió per allunyar la imatge; o en les fletxes verdes per a mapes adjacents.


METAR-TAF: